createdAt,value
2023-01-03T00:00:51.949Z,91.67
2023-01-03T00:01:51.952Z,91.36
2023-01-03T00:02:51.913Z,91.26
2023-01-03T00:03:51.893Z,91.16
2023-01-03T00:04:51.942Z,91.16
2023-01-03T00:05:51.850Z,91.26
2023-01-03T00:06:51.873Z,91.36
2023-01-03T00:07:51.816Z,91.56
2023-01-03T00:08:51.849Z,91.91
2023-01-03T00:09:51.789Z,92.12
2023-01-03T00:10:51.808Z,91.40
2023-01-03T00:11:51.772Z,91.71
2023-01-03T00:12:51.779Z,91.50
2023-01-03T00:13:51.737Z,91.61
2023-01-03T00:14:51.767Z,91.71
2023-01-03T00:15:51.711Z,91.61
2023-01-03T00:16:51.856Z,91.50
2023-01-03T00:17:51.715Z,91.50
2023-01-03T00:18:51.706Z,91.61
2023-01-03T00:19:51.665Z,91.71
2023-01-03T00:20:51.685Z,91.09
2023-01-03T00:21:51.632Z,90.58
2023-01-03T00:22:51.678Z,89.87
2023-01-03T00:23:51.610Z,89.97
2023-01-03T00:24:51.614Z,90.07
2023-01-03T00:25:51.580Z,90.17
2023-01-03T00:26:51.614Z,90.48
2023-01-03T00:27:51.581Z,90.48
2023-01-03T00:28:51.568Z,90.28
2023-01-03T00:29:51.543Z,90.58
2023-01-03T00:30:51.639Z,90.48
2023-01-03T00:31:51.505Z,90.37
2023-01-03T00:32:51.555Z,90.69
2023-01-03T00:33:51.476Z,90.79
2023-01-03T00:34:51.488Z,90.07
2023-01-03T00:35:51.455Z,90.17
2023-01-03T00:36:51.469Z,90.37
2023-01-03T00:37:51.434Z,90.48
2023-01-03T00:38:51.453Z,90.58
2023-01-03T00:39:51.408Z,90.58
2023-01-03T00:40:51.426Z,90.42
2023-01-03T00:41:51.376Z,90.01
2023-01-03T00:42:51.412Z,90.01
2023-01-03T00:43:51.382Z,89.97
2023-01-03T00:44:51.351Z,90.22
2023-01-03T00:45:51.362Z,90.69
2023-01-03T00:46:51.331Z,90.79
2023-01-03T00:47:58.346Z,91.35
2023-01-03T00:48:51.306Z,91.24
2023-01-03T00:49:51.313Z,91.35
2023-01-03T00:50:51.275Z,91.44
2023-01-03T00:51:51.251Z,91.55
2023-01-03T00:52:51.253Z,91.44
2023-01-03T00:53:51.222Z,91.44
2023-01-03T00:54:51.233Z,91.44
2023-01-03T00:55:51.212Z,91.35
2023-01-03T00:56:51.223Z,91.30
2023-01-03T00:57:51.189Z,91.20
2023-01-03T00:58:51.209Z,91.20
2023-01-03T00:59:51.177Z,91.30
2023-01-03T01:00:51.168Z,91.20
2023-01-03T01:01:51.223Z,91.24
2023-01-03T01:02:51.327Z,91.24
2023-01-03T01:03:51.149Z,91.35
2023-01-03T01:04:51.127Z,91.44
2023-01-03T01:05:51.101Z,91.65
2023-01-03T01:06:51.111Z,91.75
2023-01-03T01:07:51.051Z,91.75
2023-01-03T01:08:51.058Z,91.55
2023-01-03T01:09:51.025Z,91.24
2023-01-03T01:10:51.025Z,91.03
2023-01-03T01:11:51.023Z,91.03
2023-01-03T01:12:51.034Z,91.14
2023-01-03T01:13:50.971Z,91.24
2023-01-03T01:14:51.015Z,91.24
2023-01-03T01:15:50.947Z,91.24
2023-01-03T01:16:50.951Z,91.24
2023-01-03T01:17:50.931Z,91.35
2023-01-03T01:18:50.927Z,90.32
2023-01-03T01:19:50.913Z,90.32
2023-01-03T01:20:50.911Z,90.52
2023-01-03T01:21:50.872Z,90.42
2023-01-03T01:22:50.900Z,90.01
2023-01-03T01:23:50.844Z,89.90
2023-01-03T01:24:50.837Z,89.90
2023-01-03T01:25:50.809Z,89.60
2023-01-03T01:26:50.817Z,89.64
2023-01-03T01:27:50.790Z,89.70
2023-01-03T01:28:50.824Z,89.84
2023-01-03T01:29:50.791Z,89.95
2023-01-03T01:30:50.815Z,89.95
2023-01-03T01:31:50.734Z,89.81
2023-01-03T01:32:50.753Z,89.70
2023-01-03T01:33:50.753Z,89.70
2023-01-03T01:34:50.751Z,89.75
2023-01-03T01:35:50.716Z,89.75
2023-01-03T01:36:50.679Z,89.84
2023-01-03T01:37:50.663Z,89.75
2023-01-03T01:38:50.696Z,89.43
2023-01-03T01:39:50.631Z,89.23
2023-01-03T01:40:50.642Z,89.33
2023-01-03T01:41:50.624Z,89.54
2023-01-03T01:42:50.616Z,89.64
2023-01-03T01:43:50.567Z,89.84
2023-01-03T01:44:50.626Z,89.95
2023-01-03T01:45:50.590Z,89.84
2023-01-03T01:46:50.724Z,89.84
2023-01-03T01:47:50.520Z,89.64
2023-01-03T01:48:50.527Z,89.84
2023-01-03T01:49:50.500Z,89.84
2023-01-03T01:50:50.524Z,89.84
2023-01-03T01:51:50.515Z,89.84
2023-01-03T01:52:50.507Z,89.95
2023-01-03T01:53:50.436Z,89.95
2023-01-03T01:54:50.456Z,89.95
2023-01-03T01:55:50.412Z,89.95
2023-01-03T01:56:50.435Z,89.84
2023-01-03T01:57:50.383Z,89.84
2023-01-03T01:58:50.428Z,89.84
2023-01-03T01:59:50.377Z,89.95
2023-01-03T02:00:50.402Z,89.95
2023-01-03T02:01:50.488Z,90.05
2023-01-03T02:02:50.465Z,90.05
2023-01-03T02:03:50.381Z,90.05
2023-01-03T02:04:50.369Z,89.75
2023-01-03T02:05:50.288Z,89.84
2023-01-03T02:06:50.316Z,90.30
2023-01-03T02:07:50.257Z,90.40
2023-01-03T02:08:50.297Z,90.71
2023-01-03T02:09:50.229Z,90.61
2023-01-03T02:10:50.236Z,90.71
2023-01-03T02:11:50.207Z,90.71
2023-01-03T02:12:50.227Z,90.71
2023-01-03T02:13:50.197Z,90.61
2023-01-03T02:14:50.234Z,90.71
2023-01-03T02:15:50.239Z,90.81
2023-01-03T02:16:50.163Z,90.81
2023-01-03T02:17:50.133Z,90.81
2023-01-03T02:18:50.133Z,90.71
2023-01-03T02:19:50.111Z,90.50
2023-01-03T02:20:50.159Z,90.40
2023-01-03T02:21:50.091Z,90.40
2023-01-03T02:22:50.079Z,90.40
2023-01-03T02:23:50.073Z,90.40
2023-01-03T02:24:50.088Z,90.50
2023-01-03T02:25:50.028Z,90.40
2023-01-03T02:26:50.063Z,90.61
2023-01-03T02:27:50.008Z,90.40
2023-01-03T02:28:50.023Z,90.09
2023-01-03T02:29:49.969Z,89.99
2023-01-03T02:30:50.086Z,89.78
2023-01-03T02:31:49.977Z,89.69
2023-01-03T02:32:49.997Z,89.78
2023-01-03T02:33:49.926Z,89.69
2023-01-03T02:34:49.960Z,89.78
2023-01-03T02:35:49.897Z,89.58
2023-01-03T02:36:49.914Z,89.58
2023-01-03T02:37:49.885Z,89.69
2023-01-03T02:38:49.911Z,89.69
2023-01-03T02:39:49.843Z,89.78
2023-01-03T02:40:49.847Z,89.89
2023-01-03T02:41:49.827Z,89.78
2023-01-03T02:42:49.842Z,89.69
2023-01-03T02:43:49.810Z,89.69
2023-01-03T02:44:49.900Z,89.37
2023-01-03T02:45:49.760Z,89.07
2023-01-03T02:46:49.820Z,88.86
2023-01-03T02:47:49.739Z,88.56
2023-01-03T02:48:49.743Z,88.35
2023-01-03T02:49:49.748Z,88.24
2023-01-03T02:50:49.794Z,88.35
2023-01-03T02:51:49.690Z,88.35
2023-01-03T02:52:49.687Z,88.45
2023-01-03T02:53:49.682Z,88.45
2023-01-03T02:54:49.715Z,88.56
2023-01-03T02:55:49.662Z,88.66
2023-01-03T02:56:49.657Z,88.76
2023-01-03T02:57:49.603Z,88.45
2023-01-03T02:58:49.623Z,88.66
2023-01-03T02:59:49.586Z,88.76
2023-01-03T03:00:49.599Z,88.86
2023-01-03T03:01:49.699Z,88.86
2023-01-03T03:02:49.694Z,88.96
2023-01-03T03:03:49.667Z,89.07
2023-01-03T03:04:49.530Z,89.07
2023-01-03T03:05:49.551Z,89.07
2023-01-03T03:06:49.558Z,89.07
2023-01-03T03:07:49.505Z,89.07
2023-01-03T03:08:49.488Z,89.07
2023-01-03T03:09:49.451Z,89.17
2023-01-03T03:10:49.476Z,89.27
2023-01-03T03:11:49.456Z,89.27
2023-01-03T03:12:49.427Z,89.23
2023-01-03T03:13:49.404Z,89.13
2023-01-03T03:14:49.438Z,89.07
2023-01-03T03:15:49.403Z,89.23
2023-01-03T03:16:49.403Z,89.37
2023-01-03T03:17:49.363Z,89.48
2023-01-03T03:18:49.503Z,89.48
2023-01-03T03:19:49.325Z,89.07
2023-01-03T03:20:49.347Z,89.17
2023-01-03T03:21:49.311Z,89.17
2023-01-03T03:22:49.323Z,89.17
2023-01-03T03:23:49.285Z,89.27
2023-01-03T03:24:49.261Z,89.48
2023-01-03T03:25:49.232Z,89.48
2023-01-03T03:26:49.259Z,89.58
2023-01-03T03:27:49.209Z,89.58
2023-01-03T03:28:49.237Z,89.58
2023-01-03T03:29:49.200Z,89.78
2023-01-03T03:30:49.223Z,89.89
2023-01-03T03:31:49.259Z,90.09
2023-01-03T03:32:49.171Z,90.20
2023-01-03T03:33:49.141Z,90.20
2023-01-03T03:34:49.217Z,90.30
2023-01-03T03:35:49.115Z,90.50
2023-01-03T03:36:49.121Z,90.71
2023-01-03T03:37:49.075Z,90.81
2023-01-03T03:38:49.112Z,90.91
2023-01-03T03:39:49.054Z,91.02
2023-01-03T03:40:49.084Z,91.12
2023-01-03T03:41:49.031Z,91.22
2023-01-03T03:42:49.043Z,91.27
2023-01-03T03:43:49.006Z,91.37
2023-01-03T03:44:49.060Z,91.78
2023-01-03T03:45:49.016Z,92.23
2023-01-03T03:46:54.431Z,92.64
2023-01-03T03:47:49.956Z,92.85
2023-01-03T03:48:48.962Z,92.95
2023-01-03T03:49:48.980Z,92.95
2023-01-03T03:50:48.926Z,92.85
2023-01-03T03:51:48.944Z,92.85
2023-01-03T03:52:48.893Z,92.85
2023-01-03T03:53:48.889Z,92.95
2023-01-03T03:54:48.857Z,93.16
2023-01-03T03:55:48.893Z,93.46
2023-01-03T03:56:48.826Z,93.46
2023-01-03T03:57:48.847Z,93.46
2023-01-03T03:58:48.829Z,93.46
2023-01-03T03:59:48.836Z,93.36
2023-01-03T04:00:48.818Z,93.40
2023-01-03T04:01:48.937Z,93.51
2023-01-03T04:02:48.829Z,93.71
2023-01-03T04:03:48.817Z,93.71
2023-01-03T04:04:48.732Z,93.71
2023-01-03T04:05:48.773Z,93.71
2023-01-03T04:06:48.731Z,93.61
2023-01-03T04:07:48.733Z,93.71
2023-01-03T04:08:48.676Z,93.92
2023-01-03T04:09:48.681Z,93.71
2023-01-03T04:10:48.653Z,93.71
2023-01-03T04:11:48.676Z,93.51
2023-01-03T04:12:48.663Z,93.20
2023-01-03T04:13:48.642Z,93.40
2023-01-03T04:14:48.636Z,93.71
2023-01-03T04:15:48.618Z,93.82
2023-01-03T04:16:48.688Z,93.82
2023-01-03T04:17:48.579Z,93.82
2023-01-03T04:18:48.545Z,93.77
2023-01-03T04:19:48.572Z,93.57
2023-01-03T04:20:48.565Z,93.36
2023-01-03T04:21:48.525Z,93.26
2023-01-03T04:22:48.517Z,93.16
2023-01-03T04:23:48.522Z,92.95
2023-01-03T04:24:48.488Z,92.85
2023-01-03T04:25:48.508Z,92.80
2023-01-03T04:26:48.474Z,92.85
2023-01-03T04:27:48.459Z,92.85
2023-01-03T04:28:48.415Z,92.95
2023-01-03T04:29:48.444Z,92.85
2023-01-03T04:30:48.392Z,92.70
2023-01-03T04:31:48.503Z,92.70
2023-01-03T04:32:48.390Z,92.70
2023-01-03T04:33:48.397Z,92.70
2023-01-03T04:34:48.369Z,92.70
2023-01-03T04:35:48.370Z,92.60
2023-01-03T04:36:48.312Z,92.60
2023-01-03T04:37:48.337Z,92.60
2023-01-03T04:38:48.296Z,92.70
2023-01-03T04:39:48.329Z,92.70
2023-01-03T04:40:48.280Z,92.80
2023-01-03T04:41:48.271Z,92.80
2023-01-03T04:42:48.236Z,92.80
2023-01-03T04:43:48.287Z,92.91
2023-01-03T04:44:48.241Z,92.91
2023-01-03T04:45:48.264Z,92.91
2023-01-03T04:46:52.837Z,93.01
2023-01-03T04:47:49.202Z,93.01
2023-01-03T04:48:48.174Z,93.01
2023-01-03T04:49:48.189Z,93.01
2023-01-03T04:50:48.131Z,92.91
2023-01-03T04:51:48.142Z,92.91
2023-01-03T04:52:48.108Z,92.80
2023-01-03T04:53:48.139Z,92.80
2023-01-03T04:54:48.109Z,92.91
2023-01-03T04:55:48.094Z,92.91
2023-01-03T04:56:48.060Z,92.91
2023-01-03T04:57:48.068Z,93.01
2023-01-03T04:58:48.039Z,93.01
2023-01-03T04:59:48.052Z,93.21
2023-01-03T05:00:48.050Z,93.42
2023-01-03T05:01:48.156Z,93.57
2023-01-03T05:02:47.977Z,93.67
2023-01-03T05:03:48.016Z,93.57
2023-01-03T05:04:47.954Z,93.77
2023-01-03T05:05:47.963Z,93.98
2023-01-03T05:06:47.955Z,94.18
2023-01-03T05:07:47.949Z,94.29
2023-01-03T05:08:47.922Z,94.54
2023-01-03T05:09:47.918Z,94.59
2023-01-03T05:10:47.871Z,94.64
2023-01-03T05:11:47.921Z,94.64
2023-01-03T05:12:47.843Z,94.64
2023-01-03T05:13:47.848Z,94.70
2023-01-03T05:14:47.813Z,94.54
2023-01-03T05:15:47.829Z,94.43
2023-01-03T05:16:47.905Z,94.54
2023-01-03T05:17:47.829Z,94.64
2023-01-03T05:18:47.765Z,94.64
2023-01-03T05:19:47.777Z,94.64
2023-01-03T05:20:47.736Z,94.74
2023-01-03T05:21:47.781Z,94.74
2023-01-03T05:22:47.708Z,94.74
2023-01-03T05:23:47.744Z,94.74
2023-01-03T05:24:47.693Z,94.70
2023-01-03T05:25:47.714Z,94.70
2023-01-03T05:26:47.650Z,94.70
2023-01-03T05:27:47.674Z,94.70
2023-01-03T05:28:47.651Z,94.59
2023-01-03T05:29:47.674Z,94.70
2023-01-03T05:30:47.606Z,94.70
2023-01-03T05:31:47.710Z,94.70
2023-01-03T05:32:47.573Z,94.70
2023-01-03T05:33:47.598Z,94.70
2023-01-03T05:34:47.559Z,94.59
2023-01-03T05:35:47.562Z,94.49
2023-01-03T05:36:47.527Z,94.49
2023-01-03T05:37:47.528Z,94.59
2023-01-03T05:38:47.500Z,94.70
2023-01-03T05:39:47.527Z,94.80
2023-01-03T05:40:47.491Z,94.90
2023-01-03T05:41:47.506Z,94.90
2023-01-03T05:42:47.463Z,95.05
2023-01-03T05:43:47.452Z,95.15
2023-01-03T05:44:47.424Z,95.10
2023-01-03T05:45:47.499Z,94.95
2023-01-03T05:46:47.435Z,95.05
2023-01-03T05:47:47.450Z,95.15
2023-01-03T05:48:47.366Z,95.15
2023-01-03T05:49:47.382Z,95.05
2023-01-03T05:50:47.361Z,95.01
2023-01-03T05:51:47.353Z,94.90
2023-01-03T05:52:47.312Z,94.59
2023-01-03T05:53:47.340Z,94.59
2023-01-03T05:54:47.300Z,94.39
2023-01-03T05:55:47.307Z,94.29
2023-01-03T05:56:47.285Z,94.54
2023-01-03T05:57:47.325Z,94.84
2023-01-03T05:58:47.249Z,95.05
2023-01-03T05:59:47.259Z,95.05
2023-01-03T06:00:47.211Z,94.95
2023-01-03T06:01:47.366Z,94.95
2023-01-03T06:02:47.242Z,95.05
2023-01-03T06:03:47.261Z,95.05
2023-01-03T06:04:47.212Z,94.95
2023-01-03T06:05:50.421Z,94.95
2023-01-03T06:06:47.139Z,95.05
2023-01-03T06:07:47.182Z,94.95
2023-01-03T06:08:47.093Z,94.95
2023-01-03T06:09:47.135Z,94.90
2023-01-03T06:10:47.077Z,94.80
2023-01-03T06:11:47.082Z,94.80
2023-01-03T06:12:47.094Z,94.80
2023-01-03T06:13:47.050Z,94.70
2023-01-03T06:14:47.016Z,94.59
2023-01-03T06:15:47.071Z,94.49
2023-01-03T06:16:47.040Z,94.39
2023-01-03T06:17:47.053Z,94.39
2023-01-03T06:18:46.967Z,94.39
2023-01-03T06:19:46.980Z,94.39
2023-01-03T06:20:46.998Z,94.49
2023-01-03T06:21:46.952Z,94.59
2023-01-03T06:22:46.917Z,94.59
2023-01-03T06:23:46.946Z,94.59
2023-01-03T06:24:46.905Z,94.59
2023-01-03T06:25:46.935Z,94.70
2023-01-03T06:26:46.887Z,94.59
2023-01-03T06:27:46.872Z,94.95
2023-01-03T06:28:46.838Z,95.05
2023-01-03T06:29:46.867Z,94.74
2023-01-03T06:30:46.859Z,94.95
2023-01-03T06:31:46.857Z,95.15
2023-01-03T06:32:46.817Z,95.40
2023-01-03T06:33:46.828Z,95.71
2023-01-03T06:34:46.762Z,96.02
2023-01-03T06:35:46.766Z,96.02
2023-01-03T06:36:46.765Z,96.43
2023-01-03T06:37:46.745Z,96.73
2023-01-03T06:38:46.711Z,96.94
2023-01-03T06:39:46.716Z,97.36
2023-01-03T06:40:46.682Z,97.45
2023-01-03T06:41:46.691Z,97.25
2023-01-03T06:42:46.680Z,96.94
2023-01-03T06:43:46.696Z,96.59
2023-01-03T06:44:46.628Z,96.28
2023-01-03T06:45:46.677Z,96.18
2023-01-03T06:46:46.692Z,96.08
2023-01-03T06:47:46.644Z,95.97
2023-01-03T06:48:53.646Z,95.67
2023-01-03T06:49:46.582Z,95.56
2023-01-03T06:50:46.542Z,95.67
2023-01-03T06:51:46.574Z,95.67
2023-01-03T06:52:46.490Z,95.56
2023-01-03T06:53:46.481Z,95.56
2023-01-03T06:54:46.503Z,95.67
2023-01-03T06:55:52.693Z,95.56
2023-01-03T06:56:47.461Z,95.56
2023-01-03T06:57:46.481Z,95.61
2023-01-03T06:58:46.413Z,96.02
2023-01-03T06:59:46.427Z,96.33
2023-01-03T07:00:46.410Z,96.64
2023-01-03T07:01:46.453Z,96.73
2023-01-03T07:02:46.502Z,96.99
2023-01-03T07:03:46.369Z,97.19
2023-01-03T07:04:46.364Z,97.40
2023-01-03T07:05:46.394Z,97.61
2023-01-03T07:06:46.331Z,97.61
2023-01-03T07:07:46.313Z,97.45
2023-01-03T07:08:48.585Z,97.25
2023-01-03T07:09:46.314Z,97.15
2023-01-03T07:10:46.241Z,97.05
2023-01-03T07:11:46.282Z,96.84
2023-01-03T07:12:46.392Z,96.94
2023-01-03T07:13:46.220Z,96.94
2023-01-03T07:14:46.189Z,97.05
2023-01-03T07:15:46.260Z,96.94
2023-01-03T07:16:46.187Z,96.84
2023-01-03T07:17:46.259Z,96.94
2023-01-03T07:18:52.835Z,96.64
2023-01-03T07:19:47.157Z,96.43
2023-01-03T07:20:46.127Z,96.43
2023-01-03T07:21:46.146Z,96.53
2023-01-03T07:22:46.116Z,96.12
2023-01-03T07:23:46.109Z,96.12
2023-01-03T07:24:46.064Z,96.02
2023-01-03T07:25:46.070Z,95.92
2023-01-03T07:26:46.093Z,95.81
2023-01-03T07:27:46.043Z,95.92
2023-01-03T07:28:46.046Z,96.12
2023-01-03T07:29:46.013Z,96.22
2023-01-03T07:30:46.143Z,96.02
2023-01-03T07:31:46.065Z,96.02
2023-01-03T07:32:46.031Z,96.02
2023-01-03T07:33:45.960Z,96.02
2023-01-03T07:34:45.960Z,95.81
2023-01-03T07:35:45.958Z,95.92
2023-01-03T07:36:46.063Z,96.02
2023-01-03T07:37:45.922Z,96.12
2023-01-03T07:38:45.895Z,95.92
2023-01-03T07:39:45.933Z,95.81
2023-01-03T07:40:45.877Z,95.71
2023-01-03T07:41:45.928Z,95.71
2023-01-03T07:42:45.881Z,95.61
2023-01-03T07:43:45.869Z,95.71
2023-01-03T07:44:45.833Z,95.71
2023-01-03T07:45:45.823Z,95.61
2023-01-03T07:46:45.981Z,95.50
2023-01-03T07:47:45.812Z,95.50
2023-01-03T07:48:46.044Z,95.40
2023-01-03T07:49:45.829Z,95.40
2023-01-03T07:50:45.738Z,95.50
2023-01-03T07:51:45.759Z,95.50
2023-01-03T07:52:45.710Z,95.61
2023-01-03T07:53:45.714Z,95.50
2023-01-03T07:54:45.756Z,95.50
2023-01-03T07:55:45.694Z,95.40
2023-01-03T07:56:45.656Z,95.40
2023-01-03T07:57:45.682Z,95.50
2023-01-03T07:58:45.680Z,95.50
2023-01-03T07:59:45.647Z,95.40
2023-01-03T08:00:45.630Z,95.50
2023-01-03T08:01:45.665Z,95.71
2023-01-03T08:02:45.729Z,95.81
2023-01-03T08:03:45.597Z,95.81
2023-01-03T08:04:45.649Z,95.81
2023-01-03T08:05:45.562Z,95.67
2023-01-03T08:06:45.574Z,95.46
2023-01-03T08:07:45.516Z,95.25
2023-01-03T08:08:45.559Z,94.84
2023-01-03T08:09:45.491Z,94.74
2023-01-03T08:10:45.491Z,94.74
2023-01-03T08:11:45.471Z,94.74
2023-01-03T08:12:45.521Z,94.74
2023-01-03T08:13:45.442Z,94.64
2023-01-03T08:14:45.464Z,94.64
2023-01-03T08:15:45.466Z,94.74
2023-01-03T08:16:45.431Z,94.74
2023-01-03T08:17:45.389Z,94.74
2023-01-03T08:18:45.419Z,94.74
2023-01-03T08:19:46.100Z,94.74
2023-01-03T08:20:45.364Z,94.64
2023-01-03T08:21:45.353Z,94.64
2023-01-03T08:22:45.386Z,94.64
2023-01-03T08:23:45.306Z,94.74
2023-01-03T08:24:45.360Z,94.95
2023-01-03T08:25:45.544Z,95.15
2023-01-03T08:26:45.302Z,95.15
2023-01-03T08:27:49.931Z,95.36
2023-01-03T08:28:46.291Z,95.25
2023-01-03T08:29:45.257Z,95.25
2023-01-03T08:30:45.281Z,95.25
2023-01-03T08:31:45.258Z,95.25
2023-01-03T08:32:45.223Z,95.25
2023-01-03T08:33:45.189Z,95.10
2023-01-03T08:34:45.203Z,95.01
2023-01-03T08:35:45.159Z,94.90
2023-01-03T08:36:45.192Z,94.80
2023-01-03T08:37:45.138Z,94.70
2023-01-03T08:38:45.128Z,94.70
2023-01-03T08:39:45.123Z,94.70
2023-01-03T08:40:45.137Z,94.70
2023-01-03T08:41:45.090Z,94.59
2023-01-03T08:42:45.096Z,94.49
2023-01-03T08:43:45.057Z,94.49
2023-01-03T08:44:45.275Z,94.49
2023-01-03T08:45:45.062Z,94.49
2023-01-03T08:46:45.194Z,94.59
2023-01-03T08:47:45.008Z,94.49
2023-01-03T08:48:45.014Z,94.29
2023-01-03T08:49:45.036Z,94.39
2023-01-03T08:50:44.976Z,94.49
2023-01-03T08:51:44.949Z,94.70
2023-01-03T08:52:44.990Z,94.70
2023-01-03T08:53:44.925Z,94.70
2023-01-03T08:54:44.941Z,94.80
2023-01-03T08:55:44.894Z,94.70
2023-01-03T08:56:44.915Z,94.70
2023-01-03T08:57:44.921Z,94.90
2023-01-03T08:58:44.925Z,95.21
2023-01-03T08:59:44.860Z,95.31
2023-01-03T09:00:44.983Z,95.42
2023-01-03T09:01:44.935Z,95.42
2023-01-03T09:02:45.061Z,95.31
2023-01-03T09:03:45.007Z,95.10
2023-01-03T09:04:44.817Z,94.90
2023-01-03T09:05:44.813Z,94.65
2023-01-03T09:06:44.867Z,94.45
2023-01-03T09:07:44.764Z,94.45
2023-01-03T09:08:44.752Z,94.34
2023-01-03T09:09:44.741Z,94.34
2023-01-03T09:10:47.610Z,94.34
2023-01-03T09:11:44.705Z,94.24
2023-01-03T09:12:44.708Z,94.14
2023-01-03T09:13:44.652Z,94.14
2023-01-03T09:14:44.684Z,94.14
2023-01-03T09:15:44.688Z,94.14
2023-01-03T09:16:49.064Z,94.14
2023-01-03T09:17:45.610Z,94.14
2023-01-03T09:18:44.621Z,94.24
2023-01-03T09:19:44.711Z,94.34
2023-01-03T09:20:44.588Z,94.14
2023-01-03T09:21:44.570Z,94.29
2023-01-03T09:22:44.567Z,94.70
2023-01-03T09:23:44.532Z,94.95
2023-01-03T09:24:44.539Z,95.36
2023-01-03T09:25:44.511Z,95.77
2023-01-03T09:26:47.947Z,96.33
2023-01-03T09:27:45.492Z,96.53
2023-01-03T09:28:44.498Z,96.84
2023-01-03T09:29:44.447Z,96.84
2023-01-03T09:30:44.462Z,96.94
2023-01-03T09:31:45.831Z,96.90
2023-01-03T09:32:44.479Z,96.80
2023-01-03T09:33:44.395Z,96.69
2023-01-03T09:34:44.409Z,96.59
2023-01-03T09:35:44.377Z,95.93
2023-01-03T09:36:44.385Z,95.42
2023-01-03T09:37:48.854Z,94.90
2023-01-03T09:38:44.349Z,94.18
2023-01-03T09:39:44.337Z,94.49
2023-01-03T09:40:44.327Z,95.01
2023-01-03T09:41:44.338Z,95.21
2023-01-03T09:42:44.305Z,95.21
2023-01-03T09:43:44.282Z,95.10
2023-01-03T09:44:44.293Z,94.59
2023-01-03T09:45:44.255Z,94.49
2023-01-03T09:46:44.273Z,94.59
2023-01-03T09:47:44.219Z,94.59
2023-01-03T09:48:44.216Z,94.49
2023-01-03T09:50:11.630Z,94.39
2023-01-03T09:51:15.811Z,94.34
2023-01-03T09:51:45.298Z,94.34
2023-01-03T09:52:44.175Z,94.34
2023-01-03T09:53:44.120Z,94.24
2023-01-03T09:54:44.136Z,94.14
2023-01-03T09:55:44.101Z,94.04
2023-01-03T09:56:44.120Z,93.93
2023-01-03T09:57:44.099Z,94.14
2023-01-03T09:58:44.088Z,94.04
2023-01-03T09:59:44.057Z,93.83
2023-01-03T10:00:44.129Z,93.52
2023-01-03T10:01:44.192Z,93.42
2023-01-03T10:02:44.167Z,93.52
2023-01-03T10:03:50.438Z,93.63
2023-01-03T10:04:45.015Z,93.89
2023-01-03T10:05:43.979Z,93.89
2023-01-03T10:06:44.031Z,94.10
2023-01-03T10:07:43.961Z,94.10
2023-01-03T10:08:43.986Z,93.68
2023-01-03T10:09:43.917Z,93.79
2023-01-03T10:10:43.929Z,93.68
2023-01-03T10:11:43.891Z,93.68
2023-01-03T10:12:43.891Z,93.68
2023-01-03T10:13:43.891Z,93.59
2023-01-03T10:14:43.926Z,93.68
2023-01-03T10:15:43.847Z,94.20
2023-01-03T10:16:43.903Z,93.59
2023-01-03T10:17:43.836Z,92.97
2023-01-03T10:18:43.836Z,93.17
2023-01-03T10:19:43.807Z,93.48
2023-01-03T10:20:43.813Z,93.68
2023-01-03T10:21:43.769Z,93.68
2023-01-03T10:22:43.760Z,93.48
2023-01-03T10:23:43.760Z,93.59
2023-01-03T10:24:43.764Z,93.79
2023-01-03T10:25:43.719Z,93.79
2023-01-03T10:26:43.768Z,93.99
2023-01-03T10:27:43.704Z,94.30
2023-01-03T10:28:43.708Z,94.51
2023-01-03T10:29:43.697Z,94.65
2023-01-03T10:30:43.678Z,94.71
2023-01-03T10:31:43.701Z,94.96
2023-01-03T10:32:43.673Z,94.96
2023-01-03T10:33:43.624Z,94.55
2023-01-03T10:34:43.621Z,94.34
2023-01-03T10:35:43.576Z,94.45
2023-01-03T10:36:43.601Z,94.51
2023-01-03T10:37:43.559Z,94.51
2023-01-03T10:38:49.796Z,94.40
2023-01-03T10:39:45.291Z,94.30
2023-01-03T10:40:43.531Z,94.30
2023-01-03T10:41:43.494Z,94.20
2023-01-03T10:42:43.496Z,94.10
2023-01-03T10:43:43.466Z,94.10
2023-01-03T10:44:43.513Z,93.89
2023-01-03T10:45:49.426Z,94.10
2023-01-03T10:46:44.522Z,94.40
2023-01-03T10:47:43.421Z,94.10
2023-01-03T10:49:25.520Z,93.68
2023-01-03T10:49:44.434Z,93.48
2023-01-03T10:50:43.424Z,93.68
2023-01-03T10:51:43.476Z,94.04
2023-01-03T10:52:43.421Z,94.34
2023-01-03T10:53:43.375Z,94.45
2023-01-03T10:54:43.353Z,94.34
2023-01-03T10:55:43.310Z,94.45
2023-01-03T10:56:43.318Z,94.14
2023-01-03T10:57:43.290Z,94.14
2023-01-03T10:58:43.309Z,94.24
2023-01-03T10:59:43.258Z,94.34
2023-01-03T11:00:43.538Z,94.55
2023-01-03T11:01:43.433Z,94.45
2023-01-03T11:02:43.379Z,94.65
2023-01-03T11:03:49.437Z,94.80
2023-01-03T11:04:44.231Z,94.85
2023-01-03T11:05:43.207Z,94.85
2023-01-03T11:06:43.201Z,94.85
2023-01-03T11:07:43.157Z,94.85
2023-01-03T11:08:43.194Z,94.76
2023-01-03T11:09:48.756Z,94.76
2023-01-03T11:10:44.167Z,94.65
2023-01-03T11:11:43.101Z,94.34
2023-01-03T11:12:43.132Z,94.20
2023-01-03T11:13:43.088Z,94.20
2023-01-03T11:14:43.089Z,94.30
2023-01-03T11:15:43.074Z,94.20
2023-01-03T11:16:43.156Z,94.10
2023-01-03T11:17:43.026Z,93.99
2023-01-03T11:18:43.025Z,94.10
2023-01-03T11:19:43.000Z,94.10
2023-01-03T11:20:43.034Z,93.99
2023-01-03T11:21:42.967Z,93.89
2023-01-03T11:22:42.974Z,93.95
2023-01-03T11:23:42.948Z,94.15
2023-01-03T11:24:42.958Z,93.85
2023-01-03T11:25:42.930Z,93.64
2023-01-03T11:26:42.957Z,93.23
2023-01-03T11:27:42.905Z,92.72
2023-01-03T11:28:42.910Z,92.61
2023-01-03T11:29:42.868Z,92.61
2023-01-03T11:30:42.874Z,92.72
2023-01-03T11:31:42.889Z,92.82
2023-01-03T11:32:42.862Z,93.13
2023-01-03T11:33:42.831Z,93.33
2023-01-03T11:35:20.667Z,93.44
2023-01-03T11:35:43.781Z,93.33
2023-01-03T11:36:42.804Z,93.13
2023-01-03T11:37:42.790Z,93.13
2023-01-03T11:38:42.759Z,92.93
2023-01-03T11:39:42.747Z,93.13
2023-01-03T11:40:42.747Z,93.23
2023-01-03T11:41:42.724Z,92.61
2023-01-03T11:42:42.748Z,92.82
2023-01-03T11:43:42.689Z,93.02
2023-01-03T11:44:42.687Z,93.13
2023-01-03T11:45:48.311Z,93.02
2023-01-03T11:46:43.763Z,93.02
2023-01-03T11:47:42.701Z,93.02
2023-01-03T11:48:42.635Z,92.72
2023-01-03T11:49:42.607Z,92.61
2023-01-03T11:50:42.620Z,92.51
2023-01-03T11:51:42.574Z,92.61
2023-01-03T11:52:42.582Z,92.82
2023-01-03T11:53:42.572Z,93.02
2023-01-03T11:54:45.456Z,93.23
2023-01-03T11:55:43.575Z,93.33
2023-01-03T11:56:42.537Z,93.33
2023-01-03T11:57:42.519Z,93.44
2023-01-03T11:58:42.586Z,93.64
2023-01-03T11:59:42.474Z,93.74
2023-01-03T12:00:42.490Z,93.85
2023-01-03T12:01:42.514Z,93.64
2023-01-03T12:02:42.548Z,93.44
2023-01-03T12:03:42.444Z,93.44
2023-01-03T12:04:42.427Z,93.44
2023-01-03T12:05:42.406Z,93.44
2023-01-03T12:06:42.442Z,93.33
2023-01-03T12:07:49.570Z,93.02
2023-01-03T12:08:43.385Z,92.72
2023-01-03T12:09:42.345Z,92.61
2023-01-03T12:10:42.366Z,92.51
2023-01-03T12:11:42.314Z,92.41
2023-01-03T12:12:42.364Z,92.51
2023-01-03T12:13:42.293Z,92.51
2023-01-03T12:14:42.334Z,92.21
2023-01-03T12:15:42.298Z,92.10
2023-01-03T12:16:42.276Z,92.41
2023-01-03T12:17:42.270Z,92.86
2023-01-03T12:18:42.264Z,93.07
2023-01-03T12:19:42.272Z,93.38
2023-01-03T12:20:42.323Z,93.59
2023-01-03T12:21:42.221Z,93.64
2023-01-03T12:22:42.182Z,93.64
2023-01-03T12:23:42.183Z,93.64
2023-01-03T12:24:42.245Z,93.54
2023-01-03T12:25:42.179Z,93.68
2023-01-03T12:26:42.140Z,93.79
2023-01-03T12:27:42.136Z,94.30
2023-01-03T12:28:42.097Z,94.92
2023-01-03T12:29:42.106Z,95.02
2023-01-03T12:30:42.126Z,95.06
2023-01-03T12:31:42.225Z,95.27
2023-01-03T12:32:42.054Z,95.47
2023-01-03T12:33:42.049Z,95.27
2023-01-03T12:34:42.033Z,95.37
2023-01-03T12:35:42.094Z,95.37
2023-01-03T12:36:41.997Z,95.27
2023-01-03T12:37:42.021Z,95.06
2023-01-03T12:38:41.969Z,95.02
2023-01-03T12:39:42.020Z,95.17
2023-01-03T12:40:41.996Z,95.06
2023-01-03T12:41:41.951Z,95.17
2023-01-03T12:42:41.919Z,95.37
2023-01-03T12:43:41.982Z,95.53
2023-01-03T12:44:41.896Z,95.37
2023-01-03T12:45:41.897Z,95.17
2023-01-03T12:46:42.048Z,94.96
2023-01-03T12:47:41.896Z,94.81
2023-01-03T12:48:41.865Z,94.92
2023-01-03T12:49:48.914Z,94.81
2023-01-03T12:50:41.816Z,94.81
2023-01-03T12:51:41.852Z,94.92
2023-01-03T12:52:44.482Z,94.71